createdAt,value
2017-11-27T00:00:09.477Z,1013.29
2017-11-27T00:01:28.606Z,1013.27
2017-11-27T00:02:53.613Z,1013.24
2017-11-27T00:04:18.191Z,1013.23
2017-11-27T00:05:36.602Z,1013.29
2017-11-27T00:06:51.493Z,1013.29
2017-11-27T00:08:12.757Z,1013.32
2017-11-27T00:09:28.610Z,1013.29
2017-11-27T00:10:49.287Z,1013.31
2017-11-27T00:12:10.428Z,1013.35
2017-11-27T00:13:25.380Z,1013.31
2017-11-27T00:14:41.258Z,1013.28
2017-11-27T00:15:56.076Z,1013.33
2017-11-27T00:17:13.109Z,1013.28
2017-11-27T00:18:35.500Z,1013.3
2017-11-27T00:19:54.908Z,1013.25
2017-11-27T00:21:16.376Z,1013.25
2017-11-27T00:22:39.562Z,1013.27
2017-11-27T00:24:01.313Z,1013.24
2017-11-27T00:25:21.543Z,1013.33
2017-11-27T00:26:46.137Z,1013.37
2017-11-27T00:28:02.410Z,1013.39
2017-11-27T00:29:18.650Z,1013.41
2017-11-27T00:30:35.439Z,1013.44
2017-11-27T00:31:57.507Z,1013.44
2017-11-27T00:33:19.556Z,1013.4
2017-11-27T00:34:33.713Z,1013.39
2017-11-27T00:35:51.535Z,1013.39
2017-11-27T00:37:06.029Z,1013.34
2017-11-27T00:38:20.896Z,1013.36
2017-11-27T00:39:36.230Z,1013.4
2017-11-27T00:41:03.115Z,1013.32
2017-11-27T00:42:25.430Z,1013.33
2017-11-27T00:43:46.245Z,1013.3
2017-11-27T00:45:05.553Z,1013.29
2017-11-27T00:46:37.535Z,1013.27
2017-11-27T00:48:00.945Z,1013.28
2017-11-27T00:49:17.130Z,1013.28
2017-11-27T00:50:40.231Z,1013.26
2017-11-27T00:52:00.940Z,1013.3
2017-11-27T00:53:21.426Z,1013.28
2017-11-27T00:54:44.481Z,1013.33
2017-11-27T00:56:06.655Z,1013.33
2017-11-27T00:57:24.409Z,1013.31
2017-11-27T00:58:48.028Z,1013.3
2017-11-27T01:00:11.332Z,1013.34
2017-11-27T01:03:19.289Z,1013.41
2017-11-27T01:04:37.294Z,1013.4
2017-11-27T01:05:59.414Z,1013.42
2017-11-27T01:07:23.225Z,1013.4
2017-11-27T01:08:44.925Z,1013.46
2017-11-27T01:10:05.990Z,1013.51
2017-11-27T01:11:26.058Z,1013.48
2017-11-27T01:12:40.703Z,1013.5
2017-11-27T01:14:00.453Z,1013.52
2017-11-27T01:15:23.854Z,1013.52
2017-11-27T01:16:46.146Z,1013.47
2017-11-27T01:18:08.755Z,1013.49
2017-11-27T01:19:29.168Z,1013.51
2017-11-27T01:20:49.771Z,1013.55
2017-11-27T01:22:10.628Z,1013.56
2017-11-27T01:23:31.482Z,1013.52
2017-11-27T01:24:47.767Z,1013.53
2017-11-27T01:26:08.610Z,1013.51
2017-11-27T01:27:27.538Z,1013.53
2017-11-27T01:28:47.232Z,1013.51
2017-11-27T01:30:06.344Z,1013.55
2017-11-27T01:31:24.038Z,1013.57
2017-11-27T01:32:44.471Z,1013.58
2017-11-27T01:34:02.524Z,1013.59
2017-11-27T01:35:25.581Z,1013.57
2017-11-27T01:36:47.129Z,1013.56
2017-11-27T01:38:06.158Z,1013.53
2017-11-27T01:39:23.442Z,1013.49
2017-11-27T01:40:45.068Z,1013.52
2017-11-27T01:42:03.485Z,1013.5
2017-11-27T01:43:23.934Z,1013.52
2017-11-27T01:44:45.549Z,1013.56
2017-11-27T01:46:04.698Z,1013.53
2017-11-27T01:47:20.529Z,1013.57
2017-11-27T01:48:34.546Z,1013.59
2017-11-27T01:49:50.333Z,1013.6
2017-11-27T01:51:10.297Z,1013.57
2017-11-27T01:52:29.642Z,1013.59
2017-11-27T01:54:08.449Z,1013.58
2017-11-27T01:55:28.893Z,1013.57
2017-11-27T01:56:51.176Z,1013.61
2017-11-27T01:58:07.727Z,1013.6
2017-11-27T01:59:23.240Z,1013.59
2017-11-27T02:00:38.927Z,1013.64
2017-11-27T02:02:01.955Z,1013.6
2017-11-27T02:03:22.048Z,1013.63
2017-11-27T02:04:41.633Z,1013.6
2017-11-27T02:06:00.579Z,1013.6
2017-11-27T02:07:16.654Z,1013.62
2017-11-27T02:08:37.999Z,1013.58
2017-11-27T02:10:00.028Z,1013.6
2017-11-27T02:11:19.902Z,1013.6
2017-11-27T02:12:40.291Z,1013.57
2017-11-27T02:14:04.929Z,1013.57
2017-11-27T02:15:23.829Z,1013.59
2017-11-27T02:16:43.981Z,1013.55
2017-11-27T02:17:59.995Z,1013.52
2017-11-27T02:19:33.569Z,1013.49
2017-11-27T02:20:53.301Z,1013.5
2017-11-27T02:22:13.099Z,1013.51
2017-11-27T02:23:37.948Z,1013.48
2017-11-27T02:24:59.513Z,1013.48
2017-11-27T02:26:14.965Z,1013.47
2017-11-27T02:27:36.965Z,1013.44
2017-11-27T02:28:53.365Z,1013.44
2017-11-27T02:30:08.578Z,1013.39
2017-11-27T02:31:29.581Z,1013.39
2017-11-27T02:32:50.368Z,1013.4
2017-11-27T02:34:12.118Z,1013.39
2017-11-27T02:35:33.604Z,1013.44
2017-11-27T02:36:52.157Z,1013.45
2017-11-27T02:38:12.299Z,1013.45
2017-11-27T02:39:33.720Z,1013.43
2017-11-27T02:40:57.126Z,1013.43
2017-11-27T02:42:14.468Z,1013.37
2017-11-27T02:43:33.389Z,1013.34
2017-11-27T02:44:53.486Z,1013.38
2017-11-27T02:46:15.442Z,1013.36
2017-11-27T02:47:35.463Z,1013.3
2017-11-27T02:48:55.286Z,1013.31
2017-11-27T02:50:15.311Z,1013.27
2017-11-27T02:51:33.553Z,1013.29
2017-11-27T02:52:54.195Z,1013.3
2017-11-27T02:54:14.634Z,1013.26
2017-11-27T02:55:34.571Z,1013.25
2017-11-27T02:56:56.131Z,1013.28
2017-11-27T02:58:18.764Z,1013.24
2017-11-27T02:59:37.575Z,1013.24
2017-11-27T03:01:00.744Z,1013.2
2017-11-27T03:02:21.474Z,1013.24
2017-11-27T03:03:43.960Z,1013.24
2017-11-27T03:05:01.863Z,1013.23
2017-11-27T03:06:22.171Z,1013.23
2017-11-27T03:07:42.804Z,1013.21
2017-11-27T03:09:03.360Z,1013.19
2017-11-27T03:10:24.450Z,1013.22
2017-11-27T03:11:43.719Z,1013.18
2017-11-27T03:13:04.158Z,1013.12
2017-11-27T03:14:25.284Z,1013.09
2017-11-27T03:15:45.012Z,1013.08
2017-11-27T03:17:05.371Z,1013.07
2017-11-27T03:18:23.202Z,1013.07
2017-11-27T03:19:43.868Z,1013.12
2017-11-27T03:21:01.824Z,1013.15
2017-11-27T03:22:21.383Z,1013.09
2017-11-27T03:23:42.721Z,1013.12
2017-11-27T03:25:02.723Z,1013.09
2017-11-27T03:26:20.540Z,1013.07
2017-11-27T03:27:38.768Z,1013.06
2017-11-27T03:28:56.871Z,1013.01
2017-11-27T03:30:15.206Z,1012.98
2017-11-27T03:31:33.089Z,1012.97
2017-11-27T03:32:53.157Z,1013.05
2017-11-27T03:34:12.615Z,1013.02
2017-11-27T03:35:29.010Z,1012.99
2017-11-27T03:36:44.497Z,1012.99
2017-11-27T03:38:01.171Z,1013
2017-11-27T03:39:18.771Z,1012.98
2017-11-27T03:40:38.877Z,1012.95
2017-11-27T03:41:57.710Z,1012.95
2017-11-27T03:43:17.590Z,1012.91
2017-11-27T03:44:34.597Z,1012.88
2017-11-27T03:45:53.065Z,1012.82
2017-11-27T03:47:13.153Z,1012.95
2017-11-27T03:48:31.980Z,1012.88
2017-11-27T03:49:52.099Z,1012.91
2017-11-27T03:51:09.118Z,1012.86
2017-11-27T03:52:26.643Z,1012.84
2017-11-27T03:53:49.336Z,1012.83
2017-11-27T03:55:08.164Z,1012.82
2017-11-27T03:56:27.035Z,1012.89
2017-11-27T03:57:44.438Z,1012.87
2017-11-27T03:59:01.861Z,1012.87
2017-11-27T04:00:20.197Z,1012.84
2017-11-27T04:01:35.593Z,1012.83
2017-11-27T04:02:51.378Z,1012.84
2017-11-27T04:04:12.853Z,1012.8
2017-11-27T04:05:33.415Z,1012.84
2017-11-27T04:06:52.929Z,1012.79
2017-11-27T04:08:09.856Z,1012.79
